Time;durP1;ratioP1;P1;durP2;ratioP2;P2;SDS_P1;SDS_P2;PMS_P1;PMS_P2;Temp;Humidity;BMP_temperature;BMP_pressure;BME280_temperature;BME280_humidity;BME280_pressure;Samples;Min_cycle;Max_cycle;Signal;HPM_P1;HPM_P2
2023/11/09 00:06:14;;;;;;;8.05;1.70;;;7.40;73.50;;;;;;4863930;29;20045;-96
2023/11/09 00:12:15;;;;;;;6.50;1.80;;;7.40;73.70;;;;;;5142165;23;20098;-96
2023/11/09 00:14:43;;;;;;;6.05;1.80;;;7.40;73.70;;;;;;4883850;29;20080;-95
2023/11/09 00:17:11;;;;;;;6.78;2.30;;;7.30;74.00;;;;;;4882007;29;20060;-96
2023/11/09 00:19:38;;;;;;;7.47;1.92;;;7.20;74.20;;;;;;4889842;29;20139;-96
2023/11/09 00:22:06;;;;;;;6.60;2.00;;;7.20;74.20;;;;;;4875642;29;20053;-96
2023/11/09 00:28:59;;;;;;;7.95;2.03;;;7.40;73.90;;;;;;4850871;29;20137;-96
2023/11/09 00:31:27;;;;;;;8.38;1.70;;;7.30;73.90;;;;;;4834067;29;20054;-96
2023/11/09 00:33:54;;;;;;;6.72;1.73;;;7.30;73.90;;;;;;4834071;29;20126;-96
2023/11/09 00:36:22;;;;;;;8.63;2.50;;;7.30;73.90;;;;;;4836348;29;20576;-96
2023/11/09 00:38:51;;;;;;;7.35;2.00;;;7.40;73.90;;;;;;4828971;29;20070;-96
2023/11/09 00:41:23;;;;;;;6.53;2.00;;;7.30;73.80;;;;;;4844421;29;20042;-96
2023/11/09 00:43:53;;;;;;;10.23;2.50;;;7.30;73.80;;;;;;4832105;29;20122;-96
2023/11/09 00:46:25;;;;;;;8.60;2.42;;;7.30;73.90;;;;;;4861551;29;20042;-96
2023/11/09 00:49:01;;;;;;;7.77;2.63;;;7.30;73.80;;;;;;4830403;29;20075;-96
2023/11/09 00:51:44;;;;;;;6.13;2.53;;;7.30;74.00;;;;;;4833330;29;20042;-96
2023/11/09 01:02:50;;;;;;;8.90;2.55;;;7.10;74.80;;;;;;5515823;23;20159;-94
2023/11/09 01:05:20;;;;;;;7.80;2.60;;;7.00;75.20;;;;;;4883121;29;20131;-96
2023/11/09 01:07:50;;;;;;;10.55;2.75;;;7.00;75.50;;;;;;4891120;29;20059;-96
2023/11/09 01:18:51;;;;;;;9.10;2.67;;;6.80;76.10;;;;;;4880608;29;20106;-96
2023/11/09 01:25:20;;;;;;;6.25;2.58;;;6.70;76.60;;;;;;4871698;29;20040;-96
2023/11/09 01:27:49;;;;;;;8.88;2.67;;;6.60;76.60;;;;;;4844497;29;20132;-96
2023/11/09 01:34:26;;;;;;;8.75;3.10;;;6.50;76.50;;;;;;4882480;29;20028;-96
2023/11/09 01:41:31;;;;;;;7.32;2.83;;;6.50;76.70;;;;;;4823953;29;20050;-96
2023/11/09 01:44:10;;;;;;;7.18;2.58;;;6.50;77.00;;;;;;4807703;29;20055;-96
2023/11/09 01:47:06;;;;;;;8.20;2.75;;;6.50;76.80;;;;;;4810793;29;20086;-96
2023/11/09 01:50:23;;;;;;;9.43;2.75;;;6.50;76.70;;;;;;5106950;23;20143;-96
2023/11/09 01:52:54;;;;;;;10.53;2.90;;;6.50;76.70;;;;;;4880875;29;20125;-96
2023/11/09 01:59:32;;;;;;;9.93;2.80;;;6.40;77.00;;;;;;4896207;29;20051;-96
2023/11/09 02:02:02;;;;;;;9.70;3.42;;;6.40;77.20;;;;;;4862494;29;20045;-96
2023/11/09 02:04:34;;;;;;;10.70;3.33;;;6.30;77.20;;;;;;4894917;29;20468;-96
2023/11/09 02:11:12;;;;;;;7.70;3.15;;;6.30;77.30;;;;;;4900611;29;20105;-96
2023/11/09 02:18:04;;;;;;;9.30;3.38;;;6.20;77.60;;;;;;4900621;29;20053;-96
2023/11/09 02:25:13;;;;;;;9.10;3.40;;;6.00;78.00;;;;;;4842903;29;20046;-96
2023/11/09 02:27:54;;;;;;;9.00;3.17;;;6.10;78.00;;;;;;4829839;29;20054;-95
2023/11/09 02:30:22;;;;;;;8.73;2.83;;;6.10;77.70;;;;;;4811060;29;20054;-96
2023/11/09 02:32:50;;;;;;;7.70;2.80;;;6.10;77.60;;;;;;4809540;29;20054;-95
2023/11/09 02:35:17;;;;;;;7.75;2.95;;;6.00;77.70;;;;;;4821005;29;20103;-96
2023/11/09 02:37:45;;;;;;;10.70;2.80;;;6.00;77.90;;;;;;4820802;29;20054;-95
2023/11/09 02:40:12;;;;;;;7.63;2.65;;;5.90;78.00;;;;;;4821363;29;20047;-96
2023/11/09 02:42:41;;;;;;;8.90;2.80;;;5.90;78.10;;;;;;4802760;29;20047;-96
2023/11/09 02:45:09;;;;;;;7.65;2.58;;;5.90;78.20;;;;;;4808196;29;20046;-96
2023/11/09 02:47:38;;;;;;;7.95;3.17;;;5.90;78.20;;;;;;4822077;29;20058;-95
2023/11/09 02:50:09;;;;;;;10.70;3.00;;;5.90;78.20;;;;;;4806564;29;20065;-96
2023/11/09 02:52:37;;;;;;;9.57;3.00;;;5.90;78.40;;;;;;4853170;29;20049;-96
2023/11/09 02:55:06;;;;;;;9.32;3.03;;;5.90;78.10;;;;;;4854759;29;20083;-96
2023/11/09 02:57:34;;;;;;;9.93;3.05;;;6.00;77.90;;;;;;4840256;29;20612;-95
2023/11/09 03:00:05;;;;;;;7.63;2.80;;;5.90;77.80;;;;;;4840635;29;20053;-96
2023/11/09 03:02:34;;;;;;;10.63;3.13;;;5.90;77.90;;;;;;4855827;29;20056;-96
2023/11/09 03:05:02;;;;;;;6.85;2.80;;;6.00;77.70;;;;;;4824124;29;20113;-95
2023/11/09 03:07:31;;;;;;;8.40;3.40;;;6.00;77.50;;;;;;4836192;29;20042;-95
2023/11/09 03:09:59;;;;;;;8.60;3.00;;;6.00;77.50;;;;;;4837900;29;20144;-96
2023/11/09 03:12:27;;;;;;;10.35;3.08;;;6.00;77.50;;;;;;4868270;29;20148;-96
2023/11/09 03:14:54;;;;;;;7.57;3.00;;;6.00;77.60;;;;;;4873161;29;20118;-96
2023/11/09 03:17:22;;;;;;;9.55;3.40;;;5.90;77.70;;;;;;4871978;29;20049;-96
2023/11/09 03:19:51;;;;;;;11.85;3.50;;;5.90;77.90;;;;;;4872047;29;20045;-96
2023/11/09 03:22:19;;;;;;;11.00;2.85;;;5.80;78.10;;;;;;4869634;29;20152;-96
2023/11/09 03:24:47;;;;;;;9.10;3.38;;;5.80;78.20;;;;;;4870549;29;20053;-96
2023/11/09 03:27:15;;;;;;;8.43;3.20;;;5.80;78.20;;;;;;4870861;29;20048;-96
2023/11/09 03:29:44;;;;;;;10.82;3.40;;;5.80;78.40;;;;;;4881444;29;20049;-96
2023/11/09 03:36:18;;;;;;;13.07;3.90;;;5.80;78.40;;;;;;4888160;29;20032;-96
2023/11/09 03:38:46;;;;;;;11.73;4.15;;;5.70;78.70;;;;;;4888884;29;20114;-96
2023/11/09 03:41:14;;;;;;;10.80;3.57;;;5.80;78.60;;;;;;4871824;29;20135;-95
2023/11/09 03:43:44;;;;;;;9.38;3.55;;;5.80;78.60;;;;;;4893425;29;20064;-96
2023/11/09 03:46:18;;;;;;;11.38;4.00;;;5.80;78.30;;;;;;4875980;29;20045;-96
2023/11/09 03:48:45;;;;;;;9.75;3.97;;;5.80;78.30;;;;;;4894216;29;20077;-96
2023/11/09 03:51:18;;;;;;;10.05;4.13;;;5.70;78.50;;;;;;4887406;29;20120;-96
2023/11/09 04:14:07;;;;;;;12.93;5.33;;;5.40;79.20;;;;;;5683184;23;20053;-96
2023/11/09 04:16:35;;;;;;;12.93;5.03;;;5.40;79.30;;;;;;4884200;29;20053;-95
2023/11/09 04:19:02;;;;;;;13.18;4.60;;;5.40;79.30;;;;;;4886626;29;20048;-95
2023/11/09 04:21:29;;;;;;;10.35;4.75;;;5.30;79.20;;;;;;4887663;29;20045;-95
2023/11/09 04:23:56;;;;;;;12.63;4.28;;;5.40;79.10;;;;;;4886529;29;20120;-95
2023/11/09 04:26:23;;;;;;;10.63;4.40;;;5.40;79.20;;;;;;4886319;29;20052;-95
2023/11/09 04:28:51;;;;;;;13.18;5.07;;;5.30;79.10;;;;;;4885003;29;20044;-94
2023/11/09 04:31:20;;;;;;;9.60;4.15;;;5.40;79.10;;;;;;4885406;29;20056;-94
2023/11/09 04:33:47;;;;;;;10.60;4.57;;;5.30;79.00;;;;;;4885116;29;20053;-95
2023/11/09 04:36:17;;;;;;;11.02;4.47;;;5.40;79.00;;;;;;4888181;29;20084;-94
2023/11/09 04:38:46;;;;;;;10.20;4.70;;;5.30;78.90;;;;;;4886634;29;20048;-94
2023/11/09 04:41:16;;;;;;;10.60;4.60;;;5.40;79.00;;;;;;4887618;29;20139;-95
2023/11/09 04:43:44;;;;;;;13.30;4.53;;;5.40;78.80;;;;;;4872026;29;20053;-93
2023/11/09 04:46:15;;;;;;;9.82;3.90;;;5.40;79.00;;;;;;4886866;29;20044;-94
2023/11/09 04:48:46;;;;;;;11.93;3.80;;;5.40;79.00;;;;;;4881863;29;20568;-90
2023/11/09 04:51:22;;;;;;;10.40;3.53;;;5.40;78.90;;;;;;4869363;29;20108;-94
2023/11/09 04:53:52;;;;;;;9.20;4.00;;;5.30;79.00;;;;;;4867187;29;20101;-93
2023/11/09 04:56:38;;;;;;;10.98;4.00;;;5.40;79.00;;;;;;4866212;29;20048;-93
2023/11/09 05:07:34;;;;;;;11.02;4.45;;;5.40;78.90;;;;;;4872685;29;20053;-91
2023/11/09 05:10:02;;;;;;;12.80;4.47;;;5.40;78.90;;;;;;4875749;29;20053;-92
2023/11/09 05:12:30;;;;;;;10.55;4.07;;;5.40;78.90;;;;;;4878793;29;20049;-91
2023/11/09 05:15:00;;;;;;;12.52;4.10;;;5.40;78.90;;;;;;4867203;29;20072;-91
2023/11/09 05:17:29;;;;;;;7.67;3.53;;;5.40;78.90;;;;;;4864912;29;20045;-92
2023/11/09 05:19:57;;;;;;;10.68;4.43;;;5.40;78.70;;;;;;4859211;29;20477;-91
2023/11/09 05:22:26;;;;;;;13.60;3.88;;;5.40;78.80;;;;;;4859713;29;20061;-92
2023/11/09 05:24:54;;;;;;;8.95;3.67;;;5.40;78.80;;;;;;4864921;29;20049;-92
2023/11/09 05:27:22;;;;;;;11.35;4.18;;;5.40;78.80;;;;;;4865688;29;20048;-92
2023/11/09 05:29:49;;;;;;;11.60;4.10;;;5.40;78.90;;;;;;4871607;29;20081;-92
2023/11/09 05:32:16;;;;;;;11.68;3.92;;;5.40;78.80;;;;;;4864951;29;20162;-91
2023/11/09 05:34:43;;;;;;;9.05;3.50;;;5.40;78.80;;;;;;4864508;29;20057;-90
2023/11/09 05:37:10;;;;;;;9.48;3.55;;;;;;;;;;4864451;29;20086;-91
2023/11/09 05:39:38;;;;;;;10.68;3.78;;;;;;;;;;4880765;29;20139;-90
2023/11/09 05:42:07;;;;;;;11.03;3.53;;;;;;;;;;4867689;29;20056;-91
2023/11/09 05:44:34;;;;;;;11.07;3.70;;;5.40;78.50;;;;;;4883114;29;20147;-91
2023/11/09 05:47:01;;;;;;;9.15;3.50;;;5.40;78.50;;;;;;4864886;29;20136;-91
2023/11/09 05:49:28;;;;;;;10.38;3.70;;;5.40;78.40;;;;;;4864797;29;20084;-91
2023/11/09 05:51:55;;;;;;;9.88;3.53;;;5.40;78.30;;;;;;4858097;29;20143;-91
2023/11/09 05:54:22;;;;;;;9.13;4.07;;;5.30;78.50;;;;;;4883010;29;20147;-91
2023/11/09 05:56:49;;;;;;;10.52;3.58;;;5.30;78.50;;;;;;4882695;29;20055;-91
2023/11/09 05:59:16;;;;;;;9.32;3.65;;;5.30;78.50;;;;;;4882912;29;20059;-92
2023/11/09 06:01:44;;;;;;;9.52;4.00;;;5.20;78.70;;;;;;4882652;29;20132;-91
2023/11/09 06:04:12;;;;;;;10.60;3.67;;;5.20;78.60;;;;;;4865703;29;20101;-93
2023/11/09 06:06:39;;;;;;;9.73;3.67;;;5.20;78.60;;;;;;4864495;29;20052;-89
2023/11/09 06:09:06;;;;;;;8.88;3.70;;;5.20;78.60;;;;;;4863983;29;20056;-90
2023/11/09 06:11:34;;;;;;;8.95;3.35;;;5.10;78.70;;;;;;4867106;29;20049;-90
2023/11/09 06:14:03;;;;;;;11.35;3.67;;;5.10;78.70;;;;;;4879656;29;20080;-90
2023/11/09 06:16:32;;;;;;;9.25;3.67;;;5.20;78.80;;;;;;4881152;29;20052;-90
2023/11/09 06:19:02;;;;;;;9.97;3.50;;;5.20;78.60;;;;;;4874817;29;20140;-90
2023/11/09 06:21:29;;;;;;;7.72;3.05;;;5.20;78.50;;;;;;4876153;29;20049;-90
2023/11/09 06:23:56;;;;;;;9.38;3.60;;;5.20;78.50;;;;;;4867800;29;20093;-90
2023/11/09 06:26:24;;;;;;;9.00;3.67;;;5.20;78.50;;;;;;4849851;29;20044;-90
2023/11/09 06:28:52;;;;;;;9.48;3.70;;;5.20;78.30;;;;;;4876244;29;20062;-90
2023/11/09 06:31:26;;;;;;;9.43;3.13;;;5.20;78.30;;;;;;4863569;29;20057;-91
2023/11/09 06:33:55;;;;;;;7.90;2.90;;;5.20;78.40;;;;;;4869505;29;20059;-90
2023/11/09 06:36:22;;;;;;;12.27;3.55;;;5.30;78.00;;;;;;4873218;29;20056;-90
2023/11/09 06:38:49;;;;;;;8.95;3.28;;;5.30;78.00;;;;;;4874610;29;20056;-90
2023/11/09 06:41:16;;;;;;;10.00;3.13;;;5.40;77.80;;;;;;4848641;29;20175;-90
2023/11/09 06:43:43;;;;;;;8.07;2.83;;;5.50;77.60;;;;;;4864617;29;20526;-91
2023/11/09 06:46:11;;;;;;;9.27;3.30;;;5.50;77.30;;;;;;4879204;29;20052;-90
2023/11/09 06:48:38;;;;;;;6.95;2.33;;;5.70;76.70;;;;;;4870499;29;20044;-91
2023/11/09 06:51:05;;;;;;;7.70;2.42;;;5.80;76.40;;;;;;4866967;29;20083;-91
2023/11/09 06:53:32;;;;;;;7.97;2.75;;;5.90;75.90;;;;;;4875704;29;20100;-91
2023/11/09 06:55:59;;;;;;;6.83;2.20;;;6.00;75.40;;;;;;4848504;29;20049;-91
2023/11/09 06:58:26;;;;;;;8.95;2.47;;;6.00;75.20;;;;;;4863697;29;20056;-90
2023/11/09 07:00:54;;;;;;;7.75;2.28;;;6.10;75.00;;;;;;4865064;29;20049;-91
2023/11/09 07:03:22;;;;;;;6.53;2.30;;;6.20;74.50;;;;;;4870300;29;20468;-91
2023/11/09 07:05:50;;;;;;;7.57;2.30;;;6.20;74.40;;;;;;4864938;29;20118;-90
2023/11/09 07:08:17;;;;;;;7.80;2.47;;;6.30;74.10;;;;;;4863883;29;20109;-91
2023/11/09 07:10:44;;;;;;;6.68;1.63;;;6.50;73.90;;;;;;4850995;29;20049;-91
2023/11/09 07:13:12;;;;;;;7.70;2.10;;;6.50;73.70;;;;;;4861739;29;20053;-91
2023/11/09 07:15:39;;;;;;;6.88;1.92;;;6.60;73.30;;;;;;4879281;29;20064;-90
2023/11/09 07:18:07;;;;;;;6.45;1.50;;;6.70;73.00;;;;;;4869024;29;20080;-91
2023/11/09 07:20:35;;;;;;;7.47;1.70;;;6.90;72.70;;;;;;4875894;29;20049;-92
2023/11/09 07:23:06;;;;;;;7.22;1.35;;;7.00;72.30;;;;;;4879690;29;20053;-91
2023/11/09 07:25:36;;;;;;;6.38;1.40;;;7.00;71.80;;;;;;4872102;29;20077;-91
2023/11/09 07:28:08;;;;;;;6.38;1.55;;;7.20;71.00;;;;;;4868280;29;20056;-91
2023/11/09 07:30:36;;;;;;;4.82;1.50;;;7.30;70.30;;;;;;4878546;29;20052;-91
2023/11/09 07:33:03;;;;;;;6.23;1.60;;;7.40;70.20;;;;;;4878522;29;20056;-91
2023/11/09 07:35:31;;;;;;;6.53;1.30;;;7.50;69.90;;;;;;4872009;29;20077;-91
2023/11/09 07:37:58;;;;;;;8.43;1.50;;;7.50;69.40;;;;;;4864195;29;20057;-91
2023/11/09 07:40:28;;;;;;;5.57;1.25;;;7.70;68.80;;;;;;4869486;29;20063;-90
2023/11/09 07:42:57;;;;;;;7.00;1.33;;;7.80;68.20;;;;;;4877880;29;20041;-91
2023/11/09 07:45:25;;;;;;;8.37;1.30;;;7.90;68.20;;;;;;4864761;29;20048;-89
2023/11/09 07:47:53;;;;;;;5.82;1.35;;;8.00;67.40;;;;;;4871895;29;20503;-91
2023/11/09 07:50:20;;;;;;;5.00;1.00;;;8.10;66.90;;;;;;4866012;29;20100;-91
2023/11/09 07:52:47;;;;;;;6.70;1.20;;;8.10;66.40;;;;;;4876129;29;20045;-91
2023/11/09 07:55:17;;;;;;;5.30;1.00;;;8.30;66.20;;;;;;4871718;29;20048;-91
2023/11/09 07:57:45;;;;;;;5.47;1.17;;;8.40;65.90;;;;;;4868540;29;20048;-90
2023/11/09 08:00:12;;;;;;;5.07;0.80;;;8.50;65.40;;;;;;4873166;29;20085;-91
2023/11/09 08:02:40;;;;;;;7.32;1.45;;;8.50;65.20;;;;;;4881467;29;20072;-91
2023/11/09 08:05:13;;;;;;;5.07;1.10;;;8.60;65.20;;;;;;4864938;29;20403;-91
2023/11/09 08:07:42;;;;;;;4.90;0.93;;;8.70;64.50;;;;;;4876663;29;20412;-92
2023/11/09 08:10:10;;;;;;;3.43;1.07;;;8.80;64.60;;;;;;4871746;29;20053;-91
2023/11/09 08:12:41;;;;;;;4.32;1.00;;;8.80;64.00;;;;;;4873620;29;20053;-91
2023/11/09 08:15:13;;;;;;;4.68;1.02;;;8.90;64.20;;;;;;4875058;29;20056;-91
2023/11/09 08:17:41;;;;;;;4.22;1.35;;;8.90;64.70;;;;;;4868279;29;20052;-91
2023/11/09 08:20:13;;;;;;;4.93;1.20;;;8.90;64.20;;;;;;4863991;29;20056;-91
2023/11/09 08:22:46;;;;;;;4.50;1.07;;;9.00;64.20;;;;;;4851451;29;20132;-91
2023/11/09 08:25:15;;;;;;;3.83;1.08;;;9.10;63.80;;;;;;4871365;29;20075;-92
2023/11/09 08:27:42;;;;;;;5.30;1.20;;;9.10;64.00;;;;;;4870098;29;20037;-91
2023/11/09 08:30:11;;;;;;;4.38;1.00;;;9.20;64.20;;;;;;4877321;29;20049;-92
2023/11/09 08:32:41;;;;;;;5.40;1.40;;;9.30;64.50;;;;;;4876419;29;20049;-91
2023/11/09 08:35:12;;;;;;;3.53;1.00;;;9.30;64.10;;;;;;4858123;29;20500;-91
2023/11/09 08:37:41;;;;;;;6.38;1.00;;;9.40;63.80;;;;;;4874014;29;20452;-91
2023/11/09 08:40:18;;;;;;;4.28;1.10;;;9.50;63.70;;;;;;4882803;29;20041;-91
2023/11/09 08:42:48;;;;;;;5.50;1.10;;;9.50;63.90;;;;;;4883857;29;20045;-91
2023/11/09 08:45:21;;;;;;;4.47;0.88;;;9.60;63.80;;;;;;4880908;29;20085;-91
2023/11/09 08:47:49;;;;;;;6.40;1.27;;;9.80;62.90;;;;;;4865295;29;20048;-91
2023/11/09 08:50:17;;;;;;;3.60;0.80;;;9.80;63.90;;;;;;4872741;29;20442;-90
2023/11/09 08:52:45;;;;;;;5.55;1.20;;;9.80;64.30;;;;;;4876590;29;20049;-92
2023/11/09 08:55:13;;;;;;;4.20;1.00;;;9.90;64.60;;;;;;4869912;29;20049;-91
2023/11/09 08:57:41;;;;;;;4.93;0.93;;;10.00;64.00;;;;;;4872597;29;20057;-91
2023/11/09 09:00:12;;;;;;;7.10;1.40;;;10.00;64.30;;;;;;4878893;29;20045;-92
2023/11/09 09:02:51;;;;;;;6.38;1.35;;;10.00;64.90;;;;;;4870567;29;20051;-91
2023/11/09 09:05:20;;;;;;;5.55;1.92;;;10.00;64.80;;;;;;4858988;29;20394;-92
2023/11/09 09:07:53;;;;;;;5.70;1.40;;;10.10;65.70;;;;;;4870566;29;20040;-92
2023/11/09 09:10:27;;;;;;;8.63;2.47;;;10.20;65.30;;;;;;4861169;29;20053;-91
2023/11/09 09:12:59;;;;;;;10.40;2.27;;;10.30;65.80;;;;;;4864686;29;20135;-92
2023/11/09 09:15:29;;;;;;;11.20;2.92;;;10.30;65.00;;;;;;4873224;29;20148;-92
2023/11/09 09:17:58;;;;;;;8.45;2.38;;;10.30;66.00;;;;;;4867318;29;20068;-91
2023/11/09 09:20:27;;;;;;;8.57;2.25;;;10.30;66.10;;;;;;4859088;29;20563;-92
2023/11/09 09:22:56;;;;;;;9.05;1.98;;;10.30;65.40;;;;;;4875490;29;20055;-92
2023/11/09 09:25:25;;;;;;;10.47;2.70;;;10.30;66.90;;;;;;4872659;29;20499;-92
2023/11/09 09:27:52;;;;;;;7.00;1.67;;;10.40;66.30;;;;;;4877786;29;20518;-92
2023/11/09 09:30:21;;;;;;;10.27;2.67;;;10.40;66.90;;;;;;4873827;29;20053;-91
2023/11/09 09:32:53;;;;;;;10.93;2.67;;;10.50;66.80;;;;;;4873419;29;20044;-91
2023/11/09 09:35:23;;;;;;;8.48;2.00;;;10.50;66.30;;;;;;4875455;29;20053;-91
2023/11/09 09:37:57;;;;;;;9.30;2.47;;;10.70;66.20;;;;;;4860058;29;20389;-92
2023/11/09 09:40:29;;;;;;;9.45;2.85;;;10.70;66.00;;;;;;4854728;29;20077;-91
2023/11/09 09:43:11;;;;;;;7.82;1.98;;;10.80;66.20;;;;;;4873409;29;20049;-92
2023/11/09 09:45:40;;;;;;;8.52;2.20;;;10.80;66.30;;;;;;4876115;29;20076;-92
2023/11/09 09:48:08;;;;;;;9.63;2.50;;;10.80;65.70;;;;;;4874364;29;20056;-92
2023/11/09 09:50:39;;;;;;;10.27;2.57;;;10.80;66.00;;;;;;4877941;29;20167;-92
2023/11/09 09:53:09;;;;;;;15.48;3.00;;;10.80;66.20;;;;;;4865653;29;20135;-91
2023/11/09 09:55:39;;;;;;;8.63;2.25;;;10.90;66.10;;;;;;4871744;29;20049;-90
2023/11/09 09:58:08;;;;;;;11.38;4.57;;;11.00;65.50;;;;;;4871584;29;20103;-91
2023/11/09 10:00:36;;;;;;;8.93;2.10;;;11.00;65.70;;;;;;4861283;29;20400;-91
2023/11/09 10:03:06;;;;;;;11.33;2.50;;;11.00;65.30;;;;;;4878245;29;20084;-91
2023/11/09 10:05:36;;;;;;;10.23;2.40;;;11.20;66.10;;;;;;4873497;29;20053;-92
2023/11/09 10:08:09;;;;;;;15.77;3.25;;;11.20;65.20;;;;;;4859218;29;20052;-92
2023/11/09 10:10:52;;;;;;;7.10;2.30;;;11.30;65.20;;;;;;4870701;29;20045;-92
2023/11/09 10:13:23;;;;;;;8.32;2.40;;;;;;;;;;4879093;29;20087;-91
2023/11/09 10:15:58;;;;;;;8.40;2.13;;;11.50;64.40;;;;;;4867980;29;20053;-91
2023/11/09 10:18:30;;;;;;;10.77;3.00;;;11.50;64.30;;;;;;4873577;29;20507;-92
2023/11/09 10:21:03;;;;;;;10.82;3.15;;;11.50;64.10;;;;;;4866520;29;20052;-92
2023/11/09 10:23:30;;;;;;;8.32;1.60;;;11.60;64.40;;;;;;4877192;29;20045;-91
2023/11/09 10:25:59;;;;;;;10.05;2.58;;;11.50;63.00;;;;;;4873117;29;20056;-91
2023/11/09 10:28:32;;;;;;;8.97;2.80;;;11.60;63.60;;;;;;4872081;29;20041;-91
2023/11/09 10:31:00;;;;;;;10.15;2.17;;;11.70;64.30;;;;;;4867951;29;20122;-91
2023/11/09 10:33:30;;;;;;;9.70;2.03;;;;;;;;;;4872190;29;20041;-91
2023/11/09 10:35:57;;;;;;;11.55;3.63;;;11.60;63.50;;;;;;4878020;29;20088;-91
2023/11/09 10:38:25;;;;;;;6.68;2.30;;;11.60;63.50;;;;;;4877908;29;20052;-92
2023/11/09 10:40:54;;;;;;;6.40;1.60;;;11.60;62.60;;;;;;4855662;29;20136;-92
2023/11/09 10:43:42;;;;;;;6.63;1.80;;;;;;;;;;4873025;29;20085;-91
2023/11/09 10:46:09;;;;;;;9.30;2.10;;;11.70;63.50;;;;;;4864897;29;20083;-91
2023/11/09 10:48:44;;;;;;;14.88;8.05;;;11.80;62.40;;;;;;4874149;29;20092;-92
2023/11/09 10:51:13;;;;;;;7.60;2.15;;;11.90;62.60;;;;;;4878252;29;20041;-89
2023/11/09 10:53:43;;;;;;;13.97;3.13;;;11.90;62.40;;;;;;4878794;29;20408;-92
2023/11/09 10:56:13;;;;;;;12.88;3.33;;;12.00;62.90;;;;;;4892228;29;20506;-92
2023/11/09 10:58:44;;;;;;;11.57;3.28;;;;;;;;;;4878122;29;20406;-92
2023/11/09 11:01:17;;;;;;;10.15;2.75;;;12.20;63.10;;;;;;4872249;29;20049;-92
2023/11/09 11:03:51;;;;;;;9.05;2.88;;;12.30;62.40;;;;;;4863195;29;20052;-92
2023/11/09 11:06:33;;;;;;;12.90;3.80;;;12.40;61.80;;;;;;4881208;29;20093;-92
2023/11/09 11:09:07;;;;;;;11.00;3.20;;;12.40;62.10;;;;;;4888321;29;20560;-91
2023/11/09 11:11:38;;;;;;;9.25;2.75;;;12.30;60.90;;;;;;4871265;29;20049;-91
2023/11/09 11:14:09;;;;;;;10.43;3.35;;;12.20;61.40;;;;;;4869823;29;20055;-92
2023/11/09 11:16:42;;;;;;;11.13;2.85;;;12.20;61.50;;;;;;4876233;29;20044;-92
2023/11/09 11:19:30;;;;;;;5.80;1.47;;;12.30;61.20;;;;;;4861286;29;20049;-91
2023/11/09 11:22:15;;;;;;;9.10;2.78;;;12.20;61.30;;;;;;4869462;29;20060;-92
2023/11/09 11:25:02;;;;;;;9.27;2.40;;;12.10;59.70;;;;;;4869698;29;20045;-92
2023/11/09 11:27:45;;;;;;;11.57;5.65;;;12.00;61.00;;;;;;4878509;29;20045;-92
2023/11/09 11:30:32;;;;;;;28.60;12.43;;;12.10;62.30;;;;;;4873766;29;20092;-92
2023/11/09 11:33:04;;;;;;;34.33;14.47;;;12.20;61.30;;;;;;4864680;29;20045;-92
2023/11/09 11:35:35;;;;;;;17.67;6.65;;;12.20;61.30;;;;;;4860878;29;20099;-92
2023/11/09 11:38:26;;;;;;;31.13;17.83;;;12.20;61.80;;;;;;4868501;29;20108;-91
2023/11/09 11:41:05;;;;;;;40.88;21.65;;;12.10;61.60;;;;;;4880780;29;20048;-91
2023/11/09 11:43:42;;;;;;;23.10;9.65;;;12.10;61.70;;;;;;4852803;29;20040;-91
2023/11/09 11:46:17;;;;;;;12.20;4.37;;;12.10;61.10;;;;;;4880952;29;20052;-92
2023/11/09 11:48:53;;;;;;;7.63;1.55;;;;;;;;;;4868914;29;20045;-92
2023/11/09 11:51:22;;;;;;;9.18;2.47;;;;;;;;;;4868694;29;20144;-92
2023/11/09 11:53:52;;;;;;;6.68;1.80;;;;;;;;;;4869906;29;20052;-92
2023/11/09 11:56:24;;;;;;;8.45;2.13;;;;;;;;;;4862068;29;20080;-92
2023/11/09 11:59:00;;;;;;;4.47;1.30;;;;;;;;;;4860830;29;20064;-93
2023/11/09 12:01:29;;;;;;;4.32;1.35;;;;;;;;;;4855669;29;20045;-92
2023/11/09 12:04:02;;;;;;;11.77;2.35;;;;;;;;;;4868193;29;20432;-92
2023/11/09 12:06:34;;;;;;;8.65;2.53;;;;;;;;;;4852608;29;20049;-92
2023/11/09 12:09:07;;;;;;;6.95;1.60;;;;;;;;;;4867855;29;20448;-92
2023/11/09 12:11:56;;;;;;;7.13;1.60;;;;;;;;;;4872620;29;20054;-91
2023/11/09 12:14:24;;;;;;;8.15;1.75;;;;;;;;;;4865408;29;20052;-92
2023/11/09 12:16:52;;;;;;;8.43;2.40;;;;;;;;;;4875237;29;20055;-91
2023/11/09 12:19:20;;;;;;;8.90;2.00;;;12.00;60.10;;;;;;4854773;29;20076;-91
2023/11/09 12:21:47;;;;;;;5.95;1.60;;;11.90;60.20;;;;;;4866834;29;20041;-91
2023/11/09 12:24:21;;;;;;;12.30;2.93;;;11.60;60.40;;;;;;4876371;29;20060;-92
2023/11/09 12:27:08;;;;;;;9.68;2.40;;;11.60;60.80;;;;;;4867506;29;20093;-92
2023/11/09 12:29:37;;;;;;;6.10;1.45;;;11.50;61.20;;;;;;4874338;29;20052;-92
2023/11/09 12:32:06;;;;;;;8.30;2.28;;;11.60;61.30;;;;;;4868310;29;20096;-91
2023/11/09 12:34:37;;;;;;;9.35;2.35;;;11.80;61.00;;;;;;4883491;29;20057;-92
2023/11/09 12:37:11;;;;;;;9.33;2.47;;;12.00;60.00;;;;;;4859359;29;20059;-92
2023/11/09 12:39:43;;;;;;;11.95;3.38;;;12.10;59.80;;;;;;4873476;29;20049;-92
2023/11/09 12:42:12;;;;;;;11.20;2.30;;;12.30;59.50;;;;;;4878808;29;20499;-92
2023/11/09 12:44:42;;;;;;;8.60;2.60;;;12.40;58.30;;;;;;4878343;29;20048;-92
2023/11/09 12:47:11;;;;;;;12.25;2.10;;;12.50;58.20;;;;;;4874011;29;20045;-92
2023/11/09 12:49:43;;;;;;;7.53;2.63;;;;;;;;;;4870613;29;20044;-92
2023/11/09 12:52:10;;;;;;;8.27;2.08;;;12.60;57.00;;;;;;4870636;29;20055;-92
2023/11/09 12:54:39;;;;;;;5.38;1.52;;;12.60;56.50;;;;;;4860268;29;20518;-92
2023/11/09 12:57:07;;;;;;;6.45;2.22;;;12.50;56.60;;;;;;4868530;29;20152;-92
2023/11/09 12:59:41;;;;;;;4.75;1.00;;;12.30;56.20;;;;;;4870284;29;20053;-92
2023/11/09 13:02:19;;;;;;;7.90;1.60;;;12.40;55.70;;;;;;4865283;29;20056;-91
2023/11/09 13:04:51;;;;;;;6.97;1.95;;;12.40;56.40;;;;;;4876987;29;20072;-92
2023/11/09 13:07:24;;;;;;;6.55;2.00;;;12.30;55.70;;;;;;4869598;29;20048;-91
2023/11/09 13:10:18;;;;;;;7.85;2.42;;;12.20;56.60;;;;;;4859285;29;20055;-92
2023/11/09 13:12:44;;;;;;;6.13;1.48;;;12.20;57.20;;;;;;4879883;29;20398;-92
2023/11/09 13:15:13;;;;;;;6.90;1.93;;;;;;;;;;4880405;29;20143;-92
2023/11/09 13:17:53;;;;;;;7.43;1.63;;;12.00;57.00;;;;;;4864742;29;20052;-92
2023/11/09 13:20:30;;;;;;;8.02;1.70;;;12.00;56.90;;;;;;4870596;29;20056;-92
2023/11/09 13:23:06;;;;;;;7.93;1.95;;;12.00;57.10;;;;;;4874750;29;20055;-92
2023/11/09 13:25:40;;;;;;;8.07;2.15;;;12.00;57.50;;;;;;4872444;29;20256;-92
2023/11/09 13:28:15;;;;;;;8.47;2.37;;;12.00;56.60;;;;;;4876371;29;20402;-92
2023/11/09 13:30:52;;;;;;;7.25;1.67;;;12.00;57.10;;;;;;4857845;29;20053;-92
2023/11/09 13:33:30;;;;;;;7.05;1.90;;;12.00;56.30;;;;;;4861610;29;20494;-92
2023/11/09 13:36:08;;;;;;;9.05;2.58;;;12.00;56.80;;;;;;4857830;29;20507;-92
2023/11/09 13:46:24;;;;;;;6.90;1.60;;;11.90;56.30;;;;;;4864599;29;20055;-93
2023/11/09 13:49:17;;;;;;;6.38;1.50;;;11.90;56.90;;;;;;4850948;29;20496;-91
2023/11/09 13:59:43;;;;;;;6.38;1.92;;;11.80;56.80;;;;;;4872549;29;20129;-92
2023/11/09 14:02:17;;;;;;;7.93;2.67;;;11.70;56.90;;;;;;4866963;29;20106;-92
2023/11/09 14:04:46;;;;;;;9.07;2.65;;;11.70;56.70;;;;;;4864739;29;20213;-92
2023/11/09 14:07:15;;;;;;;10.00;2.30;;;11.70;57.40;;;;;;4869459;29;20041;-92
2023/11/09 14:09:43;;;;;;;7.15;1.67;;;11.60;57.70;;;;;;4872403;29;20041;-92
2023/11/09 14:12:12;;;;;;;8.07;1.65;;;11.60;57.90;;;;;;4854723;29;20420;-93
2023/11/09 14:14:44;;;;;;;6.78;1.48;;;11.60;57.20;;;;;;4872748;29;20073;-93
2023/11/09 14:17:18;;;;;;;6.88;1.80;;;11.60;57.50;;;;;;4870211;29;20045;-92
2023/11/09 14:19:54;;;;;;;6.67;1.70;;;11.50;58.10;;;;;;4876223;29;20048;-92
2023/11/09 14:22:23;;;;;;;8.38;2.00;;;11.50;58.20;;;;;;4874218;29;20052;-92
2023/11/09 14:24:53;;;;;;;11.73;3.30;;;11.50;58.10;;;;;;4867918;29;20049;-92
2023/11/09 14:27:25;;;;;;;8.80;2.80;;;11.50;58.20;;;;;;4884147;29;20083;-93
2023/11/09 14:29:56;;;;;;;12.18;2.90;;;11.50;58.80;;;;;;4878583;29;20049;-92
2023/11/09 14:32:26;;;;;;;8.30;2.13;;;11.50;58.50;;;;;;4875427;29;20045;-92
2023/11/09 14:34:54;;;;;;;8.60;2.40;;;11.50;58.70;;;;;;4876763;29;20037;-93
2023/11/09 14:37:22;;;;;;;8.20;1.95;;;11.50;58.10;;;;;;4872694;29;20095;-92
2023/11/09 14:40:13;;;;;;;8.52;1.92;;;11.50;58.20;;;;;;4870500;29;20045;-92
2023/11/09 14:42:41;;;;;;;6.82;1.63;;;11.50;57.90;;;;;;4865860;29;20071;-93
2023/11/09 14:45:09;;;;;;;7.30;1.57;;;11.50;58.50;;;;;;4867556;29;20518;-93
2023/11/09 14:47:41;;;;;;;10.73;2.10;;;11.50;57.90;;;;;;4871040;29;20533;-92
2023/11/09 14:50:19;;;;;;;4.15;1.20;;;11.40;58.30;;;;;;4885704;29;20048;-92
2023/11/09 14:55:27;;;;;;;5.32;1.27;;;11.30;57.90;;;;;;4867380;29;20060;-93
2023/11/09 14:57:54;;;;;;;5.80;1.50;;;11.30;58.00;;;;;;4878482;29;20456;-93
2023/11/09 15:00:23;;;;;;;10.18;1.92;;;11.30;58.40;;;;;;4871258;29;20080;-93
2023/11/09 15:02:50;;;;;;;6.28;1.02;;;11.20;57.90;;;;;;4885972;29;20053;-92
2023/11/09 15:05:22;;;;;;;6.05;2.00;;;11.20;58.20;;;;;;4871265;29;20091;-93